createdAt,value
2018-06-21T00:00:58.792Z,45.97
2018-06-21T00:05:59.068Z,46.58
2018-06-21T00:08:30.600Z,46.49
2018-06-21T00:11:01.884Z,47.20
2018-06-21T00:13:34.570Z,46.51
2018-06-21T00:16:06.015Z,46.17
2018-06-21T00:18:42.496Z,46.54
2018-06-21T00:21:13.493Z,46.58
2018-06-21T00:23:43.853Z,47.14
2018-06-21T00:26:14.492Z,47.18
2018-06-21T00:28:44.852Z,46.61
2018-06-21T00:31:16.655Z,46.71
2018-06-21T00:33:47.071Z,46.44
2018-06-21T00:36:20.473Z,47.16
2018-06-21T00:38:50.753Z,46.73
2018-06-21T00:41:20.982Z,47.83
2018-06-21T00:43:51.892Z,47.03
2018-06-21T00:46:23.197Z,48.02
2018-06-21T00:48:53.564Z,48.21
2018-06-21T00:51:24.128Z,48.46
2018-06-21T00:53:54.496Z,48.28
2018-06-21T00:56:25.112Z,48.96
2018-06-21T00:58:55.429Z,48.86
2018-06-21T01:01:26.850Z,50.05
2018-06-21T01:03:57.766Z,50.01
2018-06-21T01:06:28.108Z,50.24
2018-06-21T01:08:58.517Z,50.03
2018-06-21T01:11:29.205Z,50.48
2018-06-21T01:13:59.620Z,49.40
2018-06-21T01:16:30.118Z,50.34
2018-06-21T01:19:01.893Z,50.08
2018-06-21T01:25:12.568Z,50.95
2018-06-21T01:27:43.806Z,51.27
2018-06-21T01:30:16.392Z,51.00
2018-06-21T01:32:47.867Z,51.44
2018-06-21T01:35:20.449Z,50.97
2018-06-21T01:38:04.027Z,50.82
2018-06-21T01:40:34.786Z,51.54
2018-06-21T01:43:05.843Z,51.87
2018-06-21T01:45:37.507Z,51.91
2018-06-21T01:48:09.263Z,52.58
2018-06-21T01:50:39.864Z,53.10
2018-06-21T01:53:10.435Z,54.31
2018-06-21T01:55:40.850Z,54.22
2018-06-21T01:58:11.784Z,53.60
2018-06-21T02:00:42.760Z,52.60
2018-06-21T02:03:16.891Z,52.71
2018-06-21T02:05:47.239Z,53.23
2018-06-21T02:08:17.570Z,53.52
2018-06-21T02:10:48.578Z,52.47
2018-06-21T02:13:19.641Z,53.27
2018-06-21T02:18:20.423Z,54.31
2018-06-21T02:20:56.002Z,53.75
2018-06-21T02:26:07.471Z,54.50
2018-06-21T02:28:38.926Z,54.07
2018-06-21T02:31:09.789Z,53.89
2018-06-21T02:33:40.833Z,53.86
2018-06-21T02:36:11.355Z,55.07
2018-06-21T02:38:41.743Z,54.96
2018-06-21T02:41:12.292Z,55.23
2018-06-21T02:43:43.036Z,56.11
2018-06-21T02:46:13.958Z,55.55
2018-06-21T02:48:45.434Z,55.94
2018-06-21T02:51:15.896Z,55.71
2018-06-21T02:53:48.127Z,55.32
2018-06-21T02:56:18.947Z,55.30
2018-06-21T02:58:49.369Z,55.64
2018-06-21T03:01:20.577Z,56.55
2018-06-21T03:03:52.097Z,56.26
2018-06-21T03:06:23.891Z,56.67
2018-06-21T03:08:55.392Z,56.18
2018-06-21T03:11:26.535Z,57.10
2018-06-21T03:13:57.768Z,57.15
2018-06-21T03:16:30.573Z,56.64
2018-06-21T03:19:02.604Z,56.36
2018-06-21T03:21:33.330Z,56.79
2018-06-21T03:24:04.405Z,56.54
2018-06-21T03:26:37.066Z,56.31
2018-06-21T03:29:07.304Z,57.25
2018-06-21T03:31:38.742Z,56.61
2018-06-21T03:34:09.460Z,56.84
2018-06-21T03:36:40.626Z,57.90
2018-06-21T03:39:10.985Z,57.31
2018-06-21T03:41:41.769Z,57.87
2018-06-21T03:44:12.093Z,58.02
2018-06-21T03:46:49.223Z,57.51
2018-06-21T03:49:19.497Z,57.54
2018-06-21T03:51:50.762Z,57.32
2018-06-21T03:54:21.721Z,57.22
2018-06-21T03:56:52.796Z,57.93
2018-06-21T03:59:23.044Z,57.44
2018-06-21T04:01:53.791Z,57.68
2018-06-21T04:04:25.297Z,57.12
2018-06-21T04:06:55.709Z,57.95
2018-06-21T04:09:26.196Z,57.80
2018-06-21T04:11:57.518Z,57.84
2018-06-21T04:14:34.677Z,57.65
2018-06-21T04:17:05.586Z,57.15
2018-06-21T04:19:36.560Z,58.05
2018-06-21T04:22:09.235Z,58.30
2018-06-21T04:24:44.424Z,58.85
2018-06-21T04:27:18.627Z,58.86
2018-06-21T04:29:55.351Z,58.87
2018-06-21T04:32:27.295Z,59.61
2018-06-21T04:34:59.144Z,58.85
2018-06-21T04:37:29.551Z,59.41
2018-06-21T04:40:02.265Z,59.94
2018-06-21T04:42:32.522Z,60.16
2018-06-21T04:45:05.719Z,60.21
2018-06-21T04:47:36.637Z,59.10
2018-06-21T04:50:07.818Z,59.36
2018-06-21T04:52:38.252Z,59.81
2018-06-21T04:55:10.613Z,60.64
2018-06-21T04:57:43.043Z,59.79
2018-06-21T05:00:18.339Z,59.89
2018-06-21T05:02:49.587Z,59.60
2018-06-21T05:05:20.451Z,60.09
2018-06-21T05:07:52.122Z,60.13
2018-06-21T05:10:22.865Z,59.39
2018-06-21T05:12:53.416Z,60.13
2018-06-21T05:15:25.482Z,60.64
2018-06-21T05:18:10.530Z,61.16
2018-06-21T05:20:41.265Z,62.12
2018-06-21T05:23:13.052Z,61.76
2018-06-21T05:25:44.574Z,62.04
2018-06-21T05:28:16.941Z,62.22
2018-06-21T05:30:49.743Z,62.79
2018-06-21T05:33:21.693Z,62.80
2018-06-21T05:35:54.904Z,64.43
2018-06-21T05:38:27.230Z,65.11
2018-06-21T05:40:57.786Z,65.59
2018-06-21T05:43:29.693Z,65.78
2018-06-21T05:46:01.710Z,65.75
2018-06-21T05:48:31.889Z,65.46
2018-06-21T05:51:05.215Z,65.69
2018-06-21T05:53:36.106Z,65.74
2018-06-21T05:56:07.075Z,66.89
2018-06-21T05:58:38.130Z,67.32
2018-06-21T06:01:10.696Z,67.71
2018-06-21T06:03:43.540Z,69.06
2018-06-21T06:06:15.098Z,69.33
2018-06-21T06:08:47.257Z,69.31
2018-06-21T06:11:17.756Z,70.29
2018-06-21T06:13:50.650Z,71.18
2018-06-21T06:16:21.228Z,72.07
2018-06-21T06:18:51.806Z,72.53
2018-06-21T06:21:28.254Z,72.20
2018-06-21T06:23:59.744Z,72.61
2018-06-21T06:26:30.219Z,73.27
2018-06-21T06:29:02.242Z,73.45
2018-06-21T06:31:33.507Z,72.93
2018-06-21T06:34:03.927Z,71.59
2018-06-21T06:36:38.583Z,70.88
2018-06-21T06:39:21.288Z,70.75
2018-06-21T06:41:53.046Z,69.19
2018-06-21T06:44:24.127Z,68.33
2018-06-21T06:46:57.143Z,68.80
2018-06-21T06:49:27.702Z,68.64
2018-06-21T06:51:59.687Z,67.98
2018-06-21T06:54:30.605Z,66.92
2018-06-21T06:57:01.941Z,66.04
2018-06-21T06:59:47.793Z,64.94
2018-06-21T07:02:18.447Z,65.18
2018-06-21T07:05:03.580Z,63.97
2018-06-21T07:07:36.698Z,65.16
2018-06-21T07:10:08.488Z,64.06
2018-06-21T07:12:38.901Z,63.97
2018-06-21T07:15:14.189Z,63.55
2018-06-21T07:17:44.854Z,63.29
2018-06-21T07:20:15.482Z,62.80
2018-06-21T07:23:02.522Z,62.95
2018-06-21T07:25:33.658Z,62.33
2018-06-21T07:28:05.681Z,61.55
2018-06-21T07:30:36.384Z,60.41
2018-06-21T07:33:09.246Z,58.42
2018-06-21T07:35:41.007Z,57.78
2018-06-21T07:38:11.293Z,57.55
2018-06-21T07:40:43.339Z,56.36
2018-06-21T07:43:13.987Z,56.47
2018-06-21T07:45:45.220Z,57.00
2018-06-21T07:48:18.757Z,57.64
2018-06-21T07:53:46.167Z,59.40
2018-06-21T07:56:26.618Z,58.89
2018-06-21T07:59:06.583Z,57.23
2018-06-21T08:01:46.259Z,54.85
2018-06-21T08:04:18.710Z,54.96
2018-06-21T08:06:51.482Z,54.60
2018-06-21T08:09:27.228Z,54.00
2018-06-21T08:11:58.034Z,53.04
2018-06-21T08:14:29.561Z,53.50
2018-06-21T08:17:00.420Z,51.32
2018-06-21T08:19:31.877Z,50.84
2018-06-21T08:22:04.412Z,50.59
2018-06-21T08:24:35.022Z,49.68
2018-06-21T08:27:07.703Z,50.06
2018-06-21T08:29:38.019Z,49.78
2018-06-21T08:32:10.697Z,49.59
2018-06-21T08:34:41.931Z,50.43
2018-06-21T08:37:13.354Z,50.16
2018-06-21T08:39:43.577Z,48.69
2018-06-21T08:42:14.837Z,47.60
2018-06-21T08:44:48.415Z,45.85
2018-06-21T08:47:19.965Z,45.67
2018-06-21T08:49:53.412Z,46.44
2018-06-21T08:52:24.649Z,45.76
2018-06-21T08:54:58.270Z,44.45
2018-06-21T08:57:30.178Z,44.99
2018-06-21T09:00:00.528Z,44.72
2018-06-21T09:02:40.136Z,43.50
2018-06-21T09:05:11.542Z,44.27
2018-06-21T09:07:49.286Z,44.13
2018-06-21T09:10:24.399Z,45.54
2018-06-21T09:12:58.680Z,44.02
2018-06-21T09:15:31.736Z,43.38
2018-06-21T09:18:02.625Z,42.49
2018-06-21T09:20:35.819Z,42.21
2018-06-21T09:23:10.834Z,40.92
2018-06-21T09:25:42.530Z,39.10
2018-06-21T09:28:16.418Z,38.66
2018-06-21T09:30:49.851Z,39.61
2018-06-21T09:33:23.807Z,40.63
2018-06-21T09:35:56.225Z,41.68
2018-06-21T09:38:32.974Z,42.33
2018-06-21T09:41:09.204Z,42.39
2018-06-21T09:43:50.294Z,43.58
2018-06-21T09:46:33.878Z,42.77
2018-06-21T09:49:03.502Z,41.37
2018-06-21T09:54:13.389Z,38.71
2018-06-21T09:56:46.822Z,38.80
2018-06-21T09:59:21.064Z,39.36
2018-06-21T10:01:55.994Z,38.43
2018-06-21T10:04:27.732Z,36.72
2018-06-21T10:07:02.114Z,36.74
2018-06-21T10:09:41.541Z,37.91
2018-06-21T10:12:23.623Z,38.26
2018-06-21T10:14:55.522Z,38.25
2018-06-21T10:17:28.435Z,36.77
2018-06-21T10:19:59.864Z,35.45
2018-06-21T10:22:35.791Z,34.50
2018-06-21T10:25:19.694Z,33.35
2018-06-21T10:30:42.178Z,34.10
2018-06-21T10:33:20.465Z,32.90
2018-06-21T10:35:54.765Z,31.87
2018-06-21T10:38:31.047Z,31.71
2018-06-21T10:41:05.179Z,30.05
2018-06-21T10:43:39.083Z,29.89
2018-06-21T10:46:29.756Z,31.20
2018-06-21T10:49:06.534Z,30.23
2018-06-21T10:51:38.600Z,30.09
2018-06-21T10:54:10.667Z,28.93
2018-06-21T10:56:46.747Z,28.53
2018-06-21T10:59:21.191Z,27.73
2018-06-21T11:01:55.571Z,28.55
2018-06-21T11:04:27.416Z,27.14
2018-06-21T11:07:02.739Z,26.78
2018-06-21T11:09:37.819Z,26.16
2018-06-21T11:12:12.420Z,24.36
2018-06-21T11:14:43.918Z,25.10
2018-06-21T11:17:15.598Z,24.88
2018-06-21T11:19:51.522Z,25.04
2018-06-21T11:22:24.657Z,26.36
2018-06-21T11:27:32.792Z,25.76
2018-06-21T11:30:22.330Z,26.29
2018-06-21T11:32:53.422Z,25.96
2018-06-21T11:35:26.381Z,26.46
2018-06-21T11:38:19.526Z,25.85
2018-06-21T11:40:52.932Z,25.78
2018-06-21T11:43:25.237Z,25.75
2018-06-21T11:45:59.317Z,26.47
2018-06-21T11:48:35.592Z,26.08
2018-06-21T11:51:18.107Z,26.21
2018-06-21T11:53:52.473Z,26.10
2018-06-21T11:56:23.386Z,25.21
2018-06-21T11:58:55.743Z,24.59
2018-06-21T12:01:30.413Z,24.20
2018-06-21T12:06:42.263Z,26.06
2018-06-21T12:09:16.917Z,26.03
2018-06-21T12:11:49.100Z,28.01
2018-06-21T12:14:23.436Z,27.94
2018-06-21T12:19:18.210Z,26.35
2018-06-21T12:21:49.046Z,27.29
2018-06-21T12:24:21.629Z,26.73
2018-06-21T12:26:55.360Z,25.71
2018-06-21T12:29:29.307Z,25.49
2018-06-21T12:32:02.507Z,25.16
2018-06-21T12:34:44.490Z,25.13
2018-06-21T12:37:19.825Z,25.01
2018-06-21T12:39:51.493Z,26.83
2018-06-21T12:42:30.012Z,26.30
2018-06-21T12:47:58.657Z,23.97
2018-06-21T12:50:31.330Z,23.08
2018-06-21T12:53:04.800Z,23.01
2018-06-21T12:55:39.274Z,23.09
2018-06-21T12:58:11.171Z,23.17
2018-06-21T13:00:44.556Z,22.64
2018-06-21T13:03:16.422Z,22.59
2018-06-21T13:05:55.240Z,23.92
2018-06-21T13:08:38.625Z,23.67
2018-06-21T13:11:42.642Z,23.81
2018-06-21T13:14:26.383Z,24.34
2018-06-21T13:17:04.018Z,24.57
2018-06-21T13:19:34.452Z,25.19
2018-06-21T13:22:09.058Z,23.45
2018-06-21T13:24:45.165Z,24.22
2018-06-21T13:27:27.319Z,24.63
2018-06-21T13:30:00.611Z,24.06
2018-06-21T13:32:36.893Z,24.18
2018-06-21T13:35:13.781Z,23.91
2018-06-21T13:37:44.689Z,24.85
2018-06-21T13:40:21.312Z,24.37
2018-06-21T13:42:59.526Z,25.11
2018-06-21T13:45:34.631Z,24.43
2018-06-21T13:48:14.300Z,24.25
2018-06-21T13:50:49.498Z,24.11
2018-06-21T13:53:28.163Z,25.54
2018-06-21T13:55:59.949Z,24.83
2018-06-21T13:58:35.124Z,25.74
2018-06-21T14:01:21.329Z,25.18
2018-06-21T14:04:01.095Z,25.50
2018-06-21T14:06:36.951Z,26.21
2018-06-21T14:12:03.714Z,25.21
2018-06-21T14:14:41.826Z,25.31
2018-06-21T14:17:32.381Z,24.99
2018-06-21T14:20:04.369Z,25.80
2018-06-21T14:22:39.208Z,27.21
2018-06-21T14:25:10.401Z,27.42
2018-06-21T14:27:42.027Z,27.55
2018-06-21T14:30:19.629Z,26.17
2018-06-21T14:32:57.636Z,26.56
2018-06-21T14:35:30.508Z,26.31
2018-06-21T14:38:07.098Z,26.81
2018-06-21T14:40:42.775Z,26.73
2018-06-21T14:43:14.290Z,27.22
2018-06-21T14:48:36.700Z,28.97
2018-06-21T14:51:07.516Z,28.25
2018-06-21T14:53:41.639Z,29.39
2018-06-21T14:56:14.422Z,29.17
2018-06-21T14:58:49.085Z,29.33
2018-06-21T15:01:22.473Z,29.62
2018-06-21T15:03:54.379Z,29.37
2018-06-21T15:06:25.475Z,30.29
2018-06-21T15:08:56.400Z,29.80
2018-06-21T15:11:28.051Z,30.01
2018-06-21T15:14:01.530Z,29.53
2018-06-21T15:16:35.733Z,29.59
2018-06-21T15:19:06.003Z,30.15
2018-06-21T15:21:36.837Z,29.23
2018-06-21T15:24:07.314Z,29.98
2018-06-21T15:26:37.566Z,30.24
2018-06-21T15:29:24.486Z,30.71
2018-06-21T15:31:59.304Z,30.85
2018-06-21T15:34:33.235Z,30.46
2018-06-21T15:37:04.236Z,30.83
2018-06-21T15:39:36.532Z,30.86
2018-06-21T15:42:07.667Z,30.47
2018-06-21T15:44:38.710Z,30.85
2018-06-21T15:47:13.730Z,30.33
2018-06-21T15:49:48.298Z,30.53
2018-06-21T15:52:20.133Z,31.47
2018-06-21T15:54:51.440Z,31.81
2018-06-21T15:57:25.616Z,32.28
2018-06-21T15:59:59.672Z,31.65
2018-06-21T16:02:34.014Z,32.36
2018-06-21T16:05:07.237Z,32.40
2018-06-21T16:07:42.629Z,32.69
2018-06-21T16:10:15.519Z,32.25
2018-06-21T16:12:46.246Z,32.98
2018-06-21T16:15:23.136Z,32.50
2018-06-21T16:17:55.746Z,33.25
2018-06-21T16:20:29.927Z,33.04
2018-06-21T16:23:01.505Z,33.61
2018-06-21T16:25:35.984Z,33.64
2018-06-21T16:28:13.552Z,33.12
2018-06-21T16:30:48.121Z,33.00
2018-06-21T16:33:28.240Z,33.53
2018-06-21T16:36:01.223Z,34.18
2018-06-21T16:38:33.447Z,34.39
2018-06-21T16:41:05.216Z,33.90
2018-06-21T16:43:35.591Z,33.34
2018-06-21T16:46:13.182Z,33.84
2018-06-21T16:48:47.372Z,35.04
2018-06-21T16:51:18.897Z,34.68
2018-06-21T16:53:52.854Z,35.02
2018-06-21T16:56:26.511Z,34.52
2018-06-21T16:59:03.523Z,34.00
2018-06-21T17:01:38.094Z,35.32
2018-06-21T17:04:13.070Z,35.36
2018-06-21T17:07:08.289Z,35.29
2018-06-21T17:09:46.879Z,35.58
2018-06-21T17:12:17.717Z,35.33
2018-06-21T17:14:48.881Z,34.78
2018-06-21T17:17:23.062Z,35.94
2018-06-21T17:20:13.904Z,36.30
2018-06-21T17:22:50.317Z,36.20
2018-06-21T17:25:21.747Z,36.31
2018-06-21T17:28:46.532Z,36.41
2018-06-21T17:31:25.250Z,37.20
2018-06-21T17:33:56.155Z,38.07
2018-06-21T17:36:33.191Z,37.80
2018-06-21T17:39:06.853Z,38.60
2018-06-21T17:41:45.604Z,38.66
2018-06-21T17:44:21.583Z,38.06
2018-06-21T17:46:54.686Z,38.18
2018-06-21T17:49:31.398Z,38.83
2018-06-21T17:52:02.813Z,38.69
2018-06-21T17:54:34.786Z,38.27
2018-06-21T17:57:06.673Z,38.01
2018-06-21T17:59:43.878Z,38.16
2018-06-21T18:02:16.489Z,38.98
2018-06-21T18:04:49.451Z,39.62
2018-06-21T18:07:21.301Z,39.74
2018-06-21T18:09:52.531Z,39.82
2018-06-21T18:12:26.381Z,39.86
2018-06-21T18:17:50.753Z,39.55
2018-06-21T18:20:22.232Z,38.42
2018-06-21T18:23:13.411Z,39.48
2018-06-21T18:25:47.291Z,39.47
2018-06-21T18:28:24.533Z,39.07
2018-06-21T18:30:57.819Z,37.54
2018-06-21T18:33:34.421Z,37.41
2018-06-21T18:36:06.974Z,38.60
2018-06-21T18:38:37.986Z,39.01
2018-06-21T18:41:11.483Z,39.06
2018-06-21T18:43:50.269Z,39.08
2018-06-21T18:46:23.511Z,39.00
2018-06-21T18:48:54.664Z,40.18
2018-06-21T18:51:26.152Z,40.74
2018-06-21T18:53:57.722Z,40.28
2018-06-21T18:56:28.455Z,40.67
2018-06-21T18:59:01.049Z,40.64
2018-06-21T19:01:35.212Z,39.25
2018-06-21T19:04:11.040Z,38.63
2018-06-21T19:06:47.525Z,38.70
2018-06-21T19:09:25.389Z,39.09
2018-06-21T19:12:06.145Z,39.35
2018-06-21T19:14:37.374Z,38.73
2018-06-21T19:17:10.335Z,39.26
2018-06-21T19:19:43.716Z,39.75
2018-06-21T19:22:16.052Z,39.20
2018-06-21T19:24:49.185Z,39.28
2018-06-21T19:27:28.661Z,39.93
2018-06-21T19:30:14.989Z,39.76
2018-06-21T19:32:48.254Z,40.11
2018-06-21T19:35:20.762Z,40.65
2018-06-21T19:37:52.676Z,41.47
2018-06-21T19:43:01.354Z,43.14
2018-06-21T19:45:44.037Z,42.69
2018-06-21T19:48:43.385Z,43.11
2018-06-21T19:51:17.634Z,43.74
2018-06-21T19:53:53.021Z,44.52
2018-06-21T19:56:27.164Z,43.94
2018-06-21T19:59:01.762Z,44.97
2018-06-21T20:01:50.789Z,44.73
2018-06-21T20:04:23.443Z,45.70
2018-06-21T20:06:57.958Z,45.74
2018-06-21T20:09:29.499Z,45.72
2018-06-21T20:12:02.215Z,45.72
2018-06-21T20:14:37.570Z,46.41
2018-06-21T20:17:12.229Z,45.99
2018-06-21T20:19:59.283Z,46.84
2018-06-21T20:22:32.223Z,46.68
2018-06-21T20:25:09.461Z,46.49
2018-06-21T20:27:40.459Z,45.93
2018-06-21T20:30:14.082Z,46.39
2018-06-21T20:32:54.057Z,46.48
2018-06-21T20:35:28.233Z,46.48
2018-06-21T20:38:08.451Z,46.84
2018-06-21T20:40:45.885Z,47.12
2018-06-21T20:43:19.464Z,46.45
2018-06-21T20:45:51.294Z,46.79
2018-06-21T20:48:30.086Z,46.40
2018-06-21T20:51:07.310Z,46.49
2018-06-21T20:53:37.925Z,46.53
2018-06-21T20:56:10.166Z,46.62
2018-06-21T20:58:43.275Z,46.11
2018-06-21T21:01:19.125Z,45.99
2018-06-21T21:03:52.016Z,46.72
2018-06-21T21:06:27.303Z,47.11
2018-06-21T21:09:12.665Z,46.95
2018-06-21T21:11:46.330Z,47.22
2018-06-21T21:14:21.388Z,47.86
2018-06-21T21:16:54.398Z,46.92
2018-06-21T21:19:28.063Z,47.01
2018-06-21T21:22:00.237Z,47.60
2018-06-21T21:24:32.377Z,48.08
2018-06-21T21:27:07.026Z,48.57
2018-06-21T21:30:09.315Z,48.25
2018-06-21T21:32:46.202Z,48.53
2018-06-21T21:35:18.630Z,49.61
2018-06-21T21:37:50.794Z,49.62
2018-06-21T21:40:37.395Z,50.05
2018-06-21T21:43:08.386Z,49.85
2018-06-21T21:45:49.342Z,49.49
2018-06-21T21:48:33.780Z,50.01
2018-06-21T21:51:05.970Z,49.69
2018-06-21T21:53:45.684Z,49.46
2018-06-21T21:59:35.011Z,49.63
2018-06-21T22:02:09.691Z,49.69
2018-06-21T22:04:44.917Z,49.81
2018-06-21T22:07:17.953Z,49.68
2018-06-21T22:09:52.694Z,50.40
2018-06-21T22:12:28.535Z,50.15
2018-06-21T22:15:00.483Z,49.94
2018-06-21T22:17:34.334Z,49.66
2018-06-21T22:20:07.676Z,50.29
2018-06-21T22:22:39.276Z,50.12
2018-06-21T22:25:15.202Z,49.30
2018-06-21T22:27:46.737Z,49.80
2018-06-21T22:33:09.401Z,50.27
2018-06-21T22:35:40.736Z,50.32
2018-06-21T22:38:15.322Z,50.00
2018-06-21T22:40:54.266Z,49.77
2018-06-21T22:43:31.102Z,50.44
2018-06-21T22:46:06.088Z,50.35
2018-06-21T22:48:40.180Z,50.12
2018-06-21T22:51:14.390Z,49.87
2018-06-21T22:53:46.056Z,50.01
2018-06-21T22:56:21.103Z,50.35
2018-06-21T22:58:55.458Z,50.21
2018-06-21T23:01:28.872Z,50.40
2018-06-21T23:04:10.162Z,49.97
2018-06-21T23:06:43.938Z,50.58
2018-06-21T23:09:16.638Z,50.17
2018-06-21T23:11:48.221Z,50.27
2018-06-21T23:14:23.098Z,50.26
2018-06-21T23:17:01.633Z,50.95
2018-06-21T23:22:10.740Z,51.06
2018-06-21T23:24:43.612Z,50.37
2018-06-21T23:27:14.723Z,51.02
2018-06-21T23:29:45.271Z,50.97
2018-06-21T23:32:24.575Z,50.77
2018-06-21T23:34:55.322Z,51.26
2018-06-21T23:37:26.555Z,51.54
2018-06-21T23:39:57.264Z,51.70
2018-06-21T23:42:28.701Z,51.16
2018-06-21T23:45:00.254Z,51.62
2018-06-21T23:47:40.318Z,51.38
2018-06-21T23:50:10.691Z,51.47
2018-06-21T23:52:41.346Z,51.77
2018-06-21T23:55:13.210Z,51.33
2018-06-21T23:57:45.213Z,51.16
